Time;durP1;ratioP1;P1;durP2;ratioP2;P2;SDS_P1;SDS_P2;PMS_P1;PMS_P2;Temp;Humidity;BMP_temperature;BMP_pressure;BME280_temperature;BME280_humidity;BME280_pressure;Samples;Min_cycle;Max_cycle;Signal;HPM_P1;HPM_P2
2024/01/02 00:09:03;;;;;;;0.00;0.00;;;-1.80;99.90;;;;;;21050859;28;20040;-57
2024/01/02 00:19:05;;;;;;;0.08;0.00;;;-1.80;99.90;;;;;;21067450;28;20113;-55
2024/01/02 00:29:07;;;;;;;0.45;0.10;;;-1.90;99.90;;;;;;21067207;28;20036;-56
2024/01/02 00:39:09;;;;;;;0.47;0.00;;;-1.90;99.90;;;;;;21049005;28;20401;-57
2024/01/02 00:49:11;;;;;;;0.00;0.00;;;-1.70;99.90;;;;;;21049264;28;20478;-57
2024/01/02 00:59:14;;;;;;;3.20;0.00;;;-1.90;99.90;;;;;;21066312;28;20028;-56
2024/01/02 01:09:19;;;;;;;0.00;0.00;;;-2.10;99.90;;;;;;21065961;28;20035;-56
2024/01/02 01:19:21;;;;;;;0.10;0.00;;;-2.10;99.90;;;;;;21065959;28;20044;-57
2024/01/02 01:29:24;;;;;;;0.20;0.00;;;-2.00;99.90;;;;;;21065421;28;20101;-57
2024/01/02 01:39:26;;;;;;;0.20;0.00;;;-1.90;99.90;;;;;;21076089;28;20039;-57
2024/01/02 01:49:28;;;;;;;0.20;0.10;;;-1.80;99.90;;;;;;21081420;28;20389;-58
2024/01/02 01:59:33;;;;;;;0.80;0.10;;;-1.60;99.90;;;;;;21079830;28;20040;-57
2024/01/02 02:09:35;;;;;;;0.28;0.10;;;-1.40;99.90;;;;;;21078883;28;20035;-56
2024/01/02 02:19:37;;;;;;;0.20;0.10;;;-1.30;99.90;;;;;;21078007;28;20055;-57
2024/01/02 02:29:39;;;;;;;0.30;0.00;;;-1.30;99.90;;;;;;21076961;28;20086;-57
2024/01/02 02:39:44;;;;;;;0.32;0.13;;;-1.20;99.90;;;;;;21057995;28;20066;-54
2024/01/02 02:49:46;;;;;;;0.00;0.00;;;-1.00;99.90;;;;;;21074657;28;20028;-55
2024/01/02 02:59:47;;;;;;;0.63;0.10;;;-0.80;99.90;;;;;;21056554;28;20047;-58
2024/01/02 03:09:52;;;;;;;0.10;0.00;;;-0.70;99.90;;;;;;21074272;28;20028;-58
2024/01/02 03:19:54;;;;;;;0.28;0.08;;;-0.70;99.90;;;;;;21073344;28;20040;-51
2024/01/02 03:29:56;;;;;;;0.22;0.00;;;-0.70;99.90;;;;;;21073017;28;20044;-56
2024/01/02 03:40:01;;;;;;;0.20;0.10;;;-0.60;99.90;;;;;;21071968;28;20047;-57
2024/01/02 03:50:03;;;;;;;0.00;0.00;;;-0.50;99.90;;;;;;21054104;28;20028;-56
2024/01/02 04:00:05;;;;;;;0.20;0.08;;;-0.50;99.90;;;;;;21065822;28;20028;-58
2024/01/02 04:10:07;;;;;;;0.93;0.10;;;-0.30;99.90;;;;;;21069712;28;20032;-58
2024/01/02 04:20:10;;;;;;;0.10;0.00;;;-0.50;99.90;;;;;;21068544;28;20074;-56
2024/01/02 04:30:18;;;;;;;0.10;0.10;;;-0.60;99.90;;;;;;21066174;28;20028;-56
2024/01/02 04:40:20;;;;;;;0.35;0.10;;;-0.70;99.90;;;;;;21067261;28;20559;-57
2024/01/02 04:50:22;;;;;;;0.40;0.10;;;-0.60;99.90;;;;;;21067138;28;20032;-57
2024/01/02 05:00:24;;;;;;;0.20;0.00;;;-0.80;99.90;;;;;;21066264;28;20563;-58
2024/01/02 05:10:26;;;;;;;0.80;0.20;;;-0.90;99.90;;;;;;21070774;28;20043;-57
2024/01/02 05:20:28;;;;;;;1.38;0.00;;;-0.90;99.90;;;;;;21082869;28;20089;-55
2024/01/02 05:30:29;;;;;;;0.65;0.10;;;-1.00;99.90;;;;;;21082554;28;20475;-57
2024/01/02 05:40:31;;;;;;;0.05;0.00;;;-1.10;99.90;;;;;;21081372;28;20061;-57
2024/01/02 05:50:35;;;;;;;0.30;0.10;;;-1.00;99.90;;;;;;21062010;28;20097;-57
2024/01/02 06:00:37;;;;;;;0.20;0.10;;;-1.00;99.90;;;;;;21055623;28;20032;-56
2024/01/02 06:10:41;;;;;;;0.10;0.10;;;-1.00;99.90;;;;;;21070154;28;20157;-57
2024/01/02 06:20:43;;;;;;;0.25;0.08;;;-0.80;99.90;;;;;;21073575;28;20051;-57
2024/01/02 06:30:48;;;;;;;0.20;0.10;;;-0.60;99.90;;;;;;21073366;28;20036;-57
2024/01/02 06:40:49;;;;;;;0.35;0.10;;;-0.30;99.90;;;;;;21070757;28;20452;-58
2024/01/02 06:50:51;;;;;;;0.10;0.10;;;-0.20;99.90;;;;;;21053221;28;20119;-58
2024/01/02 07:00:53;;;;;;;0.22;0.10;;;0.00;99.90;;;;;;21071006;28;20074;-59
2024/01/02 07:10:55;;;;;;;0.30;0.10;;;-0.10;99.90;;;;;;21070138;28;20043;-58
2024/01/02 07:20:57;;;;;;;0.10;0.00;;;-0.20;99.90;;;;;;21068891;28;20105;-55
2024/01/02 07:31:01;;;;;;;0.80;0.10;;;-0.20;99.90;;;;;;21066670;28;20028;-57
2024/01/02 07:41:03;;;;;;;0.30;0.00;;;-0.30;99.90;;;;;;21041202;28;20036;-58
2024/01/02 07:51:05;;;;;;;0.10;0.00;;;0.00;99.90;;;;;;21046060;28;20028;-58
2024/01/02 08:01:10;;;;;;;0.10;0.00;;;0.50;99.90;;;;;;21047262;28;20032;-58
2024/01/02 08:11:12;;;;;;;0.20;0.10;;;1.50;97.00;;;;;;21064678;28;20032;-58
2024/01/02 08:21:13;;;;;;;0.47;0.10;;;2.20;98.20;;;;;;21064951;28;20040;-59
2024/01/02 08:31:15;;;;;;;0.10;0.10;;;2.60;96.80;;;;;;21062070;28;20115;-58
2024/01/02 08:41:17;;;;;;;0.60;0.20;;;2.50;97.40;;;;;;21061985;28;20032;-58
2024/01/02 08:51:22;;;;;;;0.20;0.10;;;2.70;97.80;;;;;;21060566;28;20024;-59
2024/01/02 09:01:24;;;;;;;0.52;0.30;;;2.80;98.10;;;;;;21061722;28;20040;-59
2024/01/02 09:11:26;;;;;;;0.20;0.00;;;2.50;99.90;;;;;;21054957;28;20523;-60
2024/01/02 09:21:28;;;;;;;0.88;0.30;;;3.00;97.40;;;;;;21040572;28;20065;-53
2024/01/02 09:31:30;;;;;;;1.00;0.20;;;4.30;98.70;;;;;;21061786;28;20040;-59
2024/01/02 09:41:50;;;;;;;0.68;0.20;;;3.80;99.50;;;;;;21057219;28;20105;-59
2024/01/02 09:52:19;;;;;;;0.50;0.20;;;3.50;99.70;;;;;;21059181;28;20914;-60
2024/01/02 10:02:22;;;;;;;1.13;0.30;;;4.40;96.80;;;;;;21073324;28;20474;-59
2024/01/02 10:12:33;;;;;;;1.45;0.15;;;4.40;96.70;;;;;;21068778;28;20024;-59
2024/01/02 10:23:15;;;;;;;0.03;0.03;;;4.30;98.10;;;;;;21054553;28;20106;-60
2024/01/02 10:33:41;;;;;;;1.48;0.10;;;4.90;93.40;;;;;;21072840;28;20047;-60
2024/01/02 10:44:01;;;;;;;0.10;0.00;;;5.20;93.70;;;;;;21071170;28;20032;-59
2024/01/02 10:54:05;;;;;;;0.00;0.00;;;5.40;93.00;;;;;;21070648;28;20042;-60
2024/01/02 11:04:46;;;;;;;1.13;0.08;;;5.90;90.30;;;;;;21069561;28;21112;-60
2024/01/02 11:14:50;;;;;;;0.32;0.10;;;6.00;90.00;;;;;;21068518;28;20039;-62
2024/01/02 11:24:57;;;;;;;0.10;0.00;;;6.40;92.70;;;;;;21067991;28;20642;-60
2024/01/02 11:35:06;;;;;;;0.00;0.00;;;7.30;90.00;;;;;;21068389;28;20032;-61
2024/01/02 11:45:22;;;;;;;0.47;0.10;;;7.60;88.90;;;;;;21049179;28;20358;-60
2024/01/02 11:55:45;;;;;;;0.98;0.10;;;7.70;87.40;;;;;;21048811;28;20040;-61
2024/01/02 12:05:50;;;;;;;1.25;0.10;;;7.80;90.40;;;;;;21064076;28;20028;-58
2024/01/02 12:16:00;;;;;;;0.20;0.00;;;7.70;85.50;;;;;;21064308;28;20081;-61
2024/01/02 12:26:05;;;;;;;0.10;0.00;;;7.70;84.70;;;;;;21063245;28;20097;-59
2024/01/02 12:37:01;;;;;;;0.00;0.00;;;7.10;81.40;;;;;;21062648;28;20245;-61
2024/01/02 12:47:10;;;;;;;0.40;0.10;;;6.30;79.50;;;;;;20805828;28;20080;-60
2024/01/02 12:57:13;;;;;;;0.30;0.20;;;6.10;83.90;;;;;;20791909;28;20612;-59
2024/01/02 13:07:16;;;;;;;0.50;0.00;;;5.90;81.70;;;;;;20803159;28;20244;-55
2024/01/02 13:17:18;;;;;;;1.75;0.10;;;5.70;81.70;;;;;;20929379;28;20076;-59
2024/01/02 13:27:28;;;;;;;0.20;0.10;;;5.60;87.40;;;;;;21060769;28;20062;-59
2024/01/02 13:37:30;;;;;;;0.87;0.20;;;5.90;87.30;;;;;;21075031;28;20040;-58
2024/01/02 13:47:34;;;;;;;2.15;0.50;;;5.60;89.50;;;;;;21076893;28;20032;-58
2024/01/02 13:57:36;;;;;;;1.00;0.60;;;5.50;96.50;;;;;;21075756;28;20375;-58
2024/01/02 14:07:42;;;;;;;3.00;0.80;;;5.30;97.60;;;;;;21074734;28;20036;-58
2024/01/02 14:17:46;;;;;;;1.50;0.68;;;4.80;99.90;;;;;;21074027;28;20036;-58
2024/01/02 14:28:07;;;;;;;3.30;1.17;;;4.10;99.90;;;;;;21071526;28;20039;-57
2024/01/02 14:38:28;;;;;;;4.03;1.70;;;3.90;99.90;;;;;;21071880;28;20119;-58
2024/01/02 14:49:08;;;;;;;5.30;1.92;;;3.60;99.90;;;;;;21067843;28;20040;-58
2024/01/02 14:59:29;;;;;;;4.77;0.83;;;2.90;99.90;;;;;;21069943;28;20047;-58
2024/01/02 15:09:51;;;;;;;1.58;1.00;;;3.10;99.90;;;;;;21070112;28;20054;-58
2024/01/02 15:20:12;;;;;;;2.58;0.90;;;3.30;99.90;;;;;;21069670;28;20039;-58
2024/01/02 15:30:15;;;;;;;1.08;0.40;;;3.20;99.90;;;;;;21068134;28;20032;-58
2024/01/02 15:40:19;;;;;;;0.95;0.45;;;3.30;99.90;;;;;;21048254;28;20070;-58
2024/01/02 15:50:40;;;;;;;1.42;0.60;;;3.70;99.90;;;;;;21048401;28;20489;-58
2024/01/02 16:00:43;;;;;;;3.95;0.90;;;3.30;99.90;;;;;;21067096;28;20097;-58
2024/01/02 16:10:48;;;;;;;2.28;0.60;;;3.20;99.90;;;;;;21065272;28;20117;-58
2024/01/02 16:21:15;;;;;;;1.75;0.50;;;3.40;99.90;;;;;;21066994;28;20036;-58
2024/01/02 16:31:26;;;;;;;1.55;0.70;;;3.50;99.90;;;;;;21068555;28;20043;-58
2024/01/02 16:41:31;;;;;;;5.87;1.53;;;3.30;99.90;;;;;;21067983;28;20066;-57
2024/01/02 16:51:33;;;;;;;4.30;0.60;;;3.20;99.90;;;;;;21067071;28;20028;-58
2024/01/02 17:01:41;;;;;;;2.85;0.77;;;3.20;99.90;;;;;;21066844;28;20052;-58
2024/01/02 17:11:44;;;;;;;1.50;0.57;;;3.20;99.90;;;;;;21065392;28;20098;-58
2024/01/02 17:21:48;;;;;;;1.17;0.50;;;3.30;99.90;;;;;;21065350;28;20402;-59
2024/01/02 17:31:52;;;;;;;1.52;0.63;;;3.30;99.90;;;;;;21066253;28;20050;-60
2024/01/02 17:41:55;;;;;;;1.33;0.40;;;3.20;99.90;;;;;;21065405;28;20539;-60
2024/01/02 17:51:59;;;;;;;3.58;0.65;;;3.10;99.90;;;;;;21065331;28;20032;-59
2024/01/02 18:02:11;;;;;;;0.50;0.30;;;3.20;99.90;;;;;;21065258;28;20052;-61
2024/01/02 18:12:34;;;;;;;2.17;0.40;;;3.20;99.90;;;;;;21064391;28;20043;-59
2024/01/02 18:22:45;;;;;;;1.25;0.30;;;3.10;99.90;;;;;;21072973;28;20035;-59
2024/01/02 18:33:02;;;;;;;0.52;0.20;;;3.30;99.90;;;;;;21077236;28;20413;-59
2024/01/02 18:43:09;;;;;;;1.85;0.20;;;3.30;99.90;;;;;;21076907;28;20086;-59
2024/01/02 18:53:18;;;;;;;3.25;1.50;;;3.40;99.90;;;;;;21076435;28;20024;-59
2024/01/02 19:03:23;;;;;;;0.50;0.30;;;3.70;99.90;;;;;;21076020;28;20054;-59
2024/01/02 19:13:25;;;;;;;1.70;0.70;;;3.50;99.90;;;;;;21074516;28;20032;-58
2024/01/02 19:23:27;;;;;;;2.35;1.23;;;3.20;99.90;;;;;;21073592;28;20094;-57
2024/01/02 19:33:29;;;;;;;2.72;1.30;;;2.70;99.90;;;;;;21072782;28;20057;-57
2024/01/02 19:43:31;;;;;;;1.10;0.20;;;2.60;99.90;;;;;;21072279;28;20043;-59
2024/01/02 19:53:33;;;;;;;2.88;1.17;;;2.90;99.90;;;;;;21071649;28;20028;-59
2024/01/02 20:03:44;;;;;;;4.70;2.53;;;3.40;99.90;;;;;;21052403;28;20106;-59
2024/01/02 20:13:49;;;;;;;2.50;0.80;;;3.00;99.90;;;;;;21069983;28;20032;-59
2024/01/02 20:24:02;;;;;;;1.30;0.20;;;2.90;99.90;;;;;;21069448;28;20129;-59
2024/01/02 20:34:36;;;;;;;2.45;0.30;;;3.20;99.90;;;;;;21068031;28;20424;-59
2024/01/02 20:44:37;;;;;;;0.70;0.20;;;3.50;99.90;;;;;;21067954;28;20062;-59
2024/01/02 20:54:39;;;;;;;0.95;0.20;;;3.80;99.90;;;;;;21067096;28;20032;-59
2024/01/02 21:04:48;;;;;;;0.50;0.20;;;4.00;99.90;;;;;;21067183;28;20366;-59
2024/01/02 21:14:50;;;;;;;1.23;0.30;;;4.20;99.90;;;;;;21066241;28;20025;-59
2024/01/02 21:24:52;;;;;;;1.70;0.40;;;4.60;99.90;;;;;;21065257;28;20047;-58
2024/01/02 21:34:55;;;;;;;1.70;0.40;;;4.80;99.90;;;;;;21047721;28;20406;-58
2024/01/02 21:44:58;;;;;;;0.65;0.20;;;4.90;99.90;;;;;;21060828;28;20032;-59
2024/01/02 21:55:01;;;;;;;2.03;0.38;;;5.00;99.90;;;;;;21073213;28;20040;-59
2024/01/02 22:05:05;;;;;;;0.40;0.20;;;4.70;99.90;;;;;;21080675;28;20043;-58
2024/01/02 22:15:11;;;;;;;1.60;0.90;;;4.30;99.90;;;;;;21079577;28;20036;-58
2024/01/02 22:25:33;;;;;;;0.80;0.30;;;4.00;99.90;;;;;;21078628;28;20714;-59
2024/01/02 22:35:40;;;;;;;0.30;0.25;;;4.10;99.90;;;;;;21078059;28;20490;-59
2024/01/02 22:45:42;;;;;;;0.75;0.10;;;4.30;99.90;;;;;;21073330;28;20036;-59
2024/01/02 22:55:44;;;;;;;0.40;0.00;;;4.40;99.90;;;;;;21075155;28;20032;-59
2024/01/02 23:05:46;;;;;;;0.00;0.00;;;4.60;99.90;;;;;;21074757;28;20036;-60
2024/01/02 23:16:10;;;;;;;0.57;0.20;;;4.80;99.90;;;;;;21074717;28;20048;-59
2024/01/02 23:26:15;;;;;;;0.77;0.10;;;4.80;99.90;;;;;;21072015;28;20039;-59
2024/01/02 23:36:18;;;;;;;1.55;0.20;;;5.00;99.90;;;;;;21073788;28;20047;-59
2024/01/02 23:46:20;;;;;;;1.63;0.40;;;5.00;99.90;;;;;;21072217;28;20036;-59
2024/01/02 23:56:30;;;;;;;1.67;0.30;;;5.10;99.90;;;;;;21071365;28;20043;-58
